< < Back
Terminal Aerodrome Forecast


Current Version              Previous Versions:   1  2  3  4  5  6  7  8  9  

Terminal Aerodrome Forecast

708
FTUS42 KJAX 200500
TAFJAX
TAF
KJAX 200539Z 2006/2106 36009KT P6SM BKN010 OVC020
      TEMPO 2006/2010 4SM -DZ OVC008
     FM201000 36013G22KT P6SM SCT010 BKN015 OVC025
      TEMPO 2010/2014 4SM -DZ OVC008
     FM201600 36016G25KT P6SM SCT010 BKN015
     FM210000 01010KT P6SM SCT015 BKN025=



Latest METAR

157
SAUS80 KWBC 201000 CCA
MTRJAX
METAR KJAX 200956Z 35010KT 6SM BR OVC010 13/12 A3002 RMK AO2 SLP167
T01280122 $


USA.gov is the U.S. government's official web portal to all federal, state and local government web resources and services.